Nearby METAR Reports

 

YSRI - Richmond (aus-Af, Australia
Distance from station: WSW 35km
Updated: 25/07/2021 00:00
Overcast
Overcast
 Wind from NNE
Wind: NNE 19 km/h
Temperature: 13°C
Dew Point: 5°C
Humidity: 59%
Barometer: 1002 hPa
Clouds: Overcast
Visibility: 10 km
Cloud details: Overcast 1646 m
2021/07/24 14:00 YSRI 241400Z AUTO 02010KT 9999 // OVC054 13/05 Q1002
YSSY - Sydney Intl Airp, Australia
Distance from station: S 47km
Updated: 25/07/2021 00:00
Clear
Clear
 Wind from NW
Wind: NW 19 km/h
Temperature: 13°C
Dew Point: 3°C
Humidity: 51%
Barometer: 1001 hPa
Summary: Clear
Visibility: greater than 10 km
2021/07/24 14:00 YSSY 241400Z 31010KT CAVOK 13/03 Q1001
 
YWLM - Williamtown Arp, Australia
Distance from station: NE 104km
Updated: 25/07/2021 00:00
Clear
Clear
 Wind from WNW
Wind: WNW 33 km/h
Temperature: 14°C
Dew Point: 3°C
Humidity: 48%
Barometer: 1003 hPa
Clouds: Clear
Visibility: 10 km
2021/07/24 14:00 YWLM 241400Z AUTO 29018KT 9999 // NCD 14/03 Q1003
YSNW - Nowra (aus-Navy), Australia
Distance from station: SSW 168km
Updated: 24/07/2021 23:35
Partly cloudy
Partly cloudy
 Wind from NW
Wind: NW 28 km/h, Gust: 46 km/h
Temperature: 12°C
Dew Point: 4°C
Humidity: 58%
Barometer: 998 hPa
Clouds: Partly cloudy
Visibility: 10 km
Cloud details: Partly cloudy 1372 m
2021/07/24 13:35 YSNW 241335Z AUTO 31015G25KT 9999 // SCT045 12/04 Q0998
 
YMDG - Mudgee Arpt, Australia
Distance from station: NW 177km
Updated: 25/07/2021 00:00
Overcast
Overcast
 Wind from NNW
Wind: NNW 20 km/h
Temperature: 8°C
Wind Chill: 4°C
Dew Point: 7°C
Humidity: 93%
Barometer: 1007 hPa
Clouds: Overcast
Visibility: 10 km
Cloud details: Mostly cloudy 610 m
Overcast 792 m
Overcast 1280 m
2021/07/24 14:00 YMDG 241400Z AUTO 34011KT 9999 // BKN020 OVC026 OVC042 08/07 Q1007
YTRE - Taree Airport, Australia
Distance from station: NE 224km
Updated: 25/07/2021 00:00
Clear
Clear
 Wind from NNW
Wind: NNW 11 km/h
Temperature: 11°C
Dew Point: 3°C
Humidity: 58%
Barometer: 1005 hPa
Clouds: Clear
Visibility: 10 km
2021/07/24 14:00 YTRE 241400Z AUTO 34006KT 9999 // NCD 11/03 Q1005
 
YSCB - Canberra (civ/Mi, Australia
Distance from station: SW 265km
Updated: 25/07/2021 00:00
Rain showers, Overcast
Rain showers, Overcast
 Wind from NNW
Wind: NNW 30 km/h
Temperature: 5°C
Wind Chill: 0°C
Dew Point: 4°C
Humidity: 93%
Barometer: 1000 hPa
Summary: Rain Showers
Clouds: Overcast
Visibility: 10 km
Cloud details: Mostly cloudy 853 m
Mostly cloudy 1494 m
Overcast 2621 m
2021/07/24 14:00 YSCB 241400Z AUTO 34016KT 9999 SHRA BKN028 BKN049 OVC086 05/04 Q1000
YSTW - Tamworth Airport, Australia
Distance from station: N 275km
Updated: 25/07/2021 00:00
Overcast
Overcast
 Wind from N
Wind: N 19 km/h
Temperature: 9°C
Wind Chill: 6°C
Dew Point: 7°C
Humidity: 87%
Barometer: 1009 hPa
Clouds: Overcast
Visibility: 10 km
Cloud details: Partly cloudy 1859 m
Overcast 2926 m
2021/07/24 14:00 YSTW 241400Z AUTO 36010KT 9999 // SCT061 OVC096 09/07 Q1009
 
YSDU - Dubbo, Australia
Distance from station: WNW 280km
Updated: 25/07/2021 00:00
Overcast
Overcast
 Wind from NNW
Wind: NNW 20 km/h
Temperature: 9°C
Wind Chill: 6°C
Dew Point: 7°C
Humidity: 87%
Barometer: 1007 hPa
Clouds: Overcast
Visibility: 10 km
Cloud details: Partly cloudy 2408 m
Overcast 2896 m
2021/07/24 14:00 YSDU 241400Z AUTO 33011KT 9999 // SCT079 OVC095 09/07 Q1007
YPMQ - Port Macquarie, Australia
Distance from station: NE 284km
Updated: 24/07/2021 03:59
NOT Current
Clear
Clear
 Wind from calm
Wind: Calm
Temperature: 4°C
Dew Point: 4°C
Humidity: 100%
Barometer: 1004 hPa
Clouds: Clear
Visibility: 10 km
2021/07/23 17:59 YPMQ 231759Z AUTO 00000KT 9999 // NCD 04/04 Q1004
 
YCBB - Coonabarabran, Australia
Distance from station: NW 300km
Updated: 25/07/2021 00:00
Partly cloudy
Partly cloudy
 Wind from NNW
Wind: NNW 26 km/h
Temperature: 7°C
Wind Chill: 3°C
Dew Point: 6°C
Humidity: 93%
Barometer: 1008 hPa
Clouds: Partly cloudy
Visibility: 10 km
Cloud details: Partly cloudy 1585 m
Partly cloudy 1951 m
2021/07/24 14:00 YCBB 241400Z AUTO 33014KT 9999 // SCT052 SCT064 07/06 Q1008